Time,TemperatureF,DewpointF,PressureIn,WindDirection,WindDirectionDegrees,WindSpeedMPH,WindSpeedGustMPH,Humidity,HourlyPrecipIn,Conditions,Clouds,dailyrainin,SoftwareType,DateUTC
2013-02-27 08:19:00,32.3,30.0,29.93,NNE,27,0.0,8.0,91,0.00,,,0.08,weatherlink.com 1.10,2013-02-27 13:19:00,
2013-02-27 08:37:00,32.6,30.0,29.93,West,263,4.0,6.0,91,0.00,,,0.08,weatherlink.com 1.10,2013-02-27 13:37:00,
2013-02-27 08:52:00,32.6,30.0,29.93,West,275,0.0,3.0,91,0.00,,,0.08,weatherlink.com 1.10,2013-02-27 13:52:00,
2013-02-27 09:07:00,32.7,30.0,29.93,NE,53,2.0,6.0,91,0.00,,,0.08,weatherlink.com 1.10,2013-02-27 14:07:00,
2013-02-27 09:22:00,32.7,30.0,29.93,South,180,0.0,8.0,91,0.00,,,0.08,weatherlink.com 1.10,2013-02-27 14:22:00,
2013-02-27 09:37:00,33.0,30.0,29.93,West,265,0.0,7.0,90,0.00,,,0.08,weatherlink.com 1.10,2013-02-27 14:37:00,
2013-02-27 09:52:00,33.2,31.0,29.94,East,93,1.0,8.0,90,0.00,,,0.08,weatherlink.com 1.10,2013-02-27 14:52:00,
2013-02-27 10:07:00,33.4,30.0,29.95,SW,225,0.0,6.0,88,0.01,,,0.09,weatherlink.com 1.10,2013-02-27 15:07:00,
2013-02-27 10:23:00,33.5,30.0,29.95,NNE,32,0.0,11.0,86,0.01,,,0.09,weatherlink.com 1.10,2013-02-27 15:23:00,
2013-02-27 10:38:00,33.7,30.0,29.95,North,360,0.0,9.0,86,0.01,,,0.09,weatherlink.com 1.10,2013-02-27 15:38:00,
2013-02-27 10:53:00,34.0,30.0,29.95,East,89,5.0,5.0,85,0.01,,,0.09,weatherlink.com 1.10,2013-02-27 15:53:00,
2013-02-27 11:08:00,34.0,30.0,29.95,WSW,242,0.0,4.0,85,0.00,,,0.09,weatherlink.com 1.10,2013-02-27 16:08:00,
2013-02-27 11:23:00,34.1,30.0,29.95,West,280,0.0,4.0,86,0.00,,,0.09,weatherlink.com 1.10,2013-02-27 16:23:00,
2013-02-27 11:38:00,34.1,30.0,29.96,WSW,248,2.0,6.0,86,0.00,,,0.09,weatherlink.com 1.10,2013-02-27 16:38:00,
2013-02-27 11:53:00,33.8,31.0,29.96,WSW,248,1.0,13.0,89,0.00,,,0.09,weatherlink.com 1.10,2013-02-27 16:53:00,
2013-02-27 12:08:00,33.4,31.0,29.96,WSW,244,2.0,7.0,91,0.00,,,0.09,weatherlink.com 1.10,2013-02-27 17:08:00,
2013-02-27 12:23:00,33.2,30.0,29.95,West,266,1.0,4.0,89,0.01,,,0.10,weatherlink.com 1.10,2013-02-27 17:23:00,
2013-02-27 12:38:00,33.5,31.0,29.95,NE,44,1.0,4.0,90,0.01,,,0.10,weatherlink.com 1.10,2013-02-27 17:38:00,
2013-02-27 13:08:00,33.8,30.0,29.94,North,5,1.0,15.0,86,0.01,,,0.10,weatherlink.com 1.10,2013-02-27 18:08:00,
2013-02-27 13:23:00,34.2,30.0,29.93,South,180,0.0,8.0,85,0.00,,,0.10,weatherlink.com 1.10,2013-02-27 18:23:00,
2013-02-27 13:38:00,34.9,31.0,29.93,WNW,296,0.0,5.0,84,0.00,,,0.10,weatherlink.com 1.10,2013-02-27 18:38:00,
2013-02-27 13:53:00,35.1,30.0,29.92,WSW,242,0.0,7.0,82,0.00,,,0.10,weatherlink.com 1.10,2013-02-27 18:53:00,
2013-02-27 14:08:00,35.3,30.0,29.92,NNE,23,3.0,10.0,80,0.01,,,0.11,weatherlink.com 1.10,2013-02-27 19:08:00,
2013-02-27 14:23:00,35.4,30.0,29.90,SE,137,0.0,6.0,79,0.01,,,0.11,weatherlink.com 1.10,2013-02-27 19:23:00,
2013-02-27 14:38:00,35.9,30.0,29.91,NE,47,0.0,4.0,79,0.01,,,0.11,weatherlink.com 1.10,2013-02-27 19:38:00,
2013-02-27 14:53:00,35.9,30.0,29.92,NE,54,0.0,6.0,79,0.01,,,0.11,weatherlink.com 1.10,2013-02-27 19:53:00,
2013-02-27 15:08:00,35.6,30.0,29.93,ENE,74,1.0,10.0,80,0.00,,,0.11,weatherlink.com 1.10,2013-02-27 20:08:00,
2013-02-27 15:23:00,35.3,30.0,29.92,South,174,2.0,7.0,81,0.00,,,0.11,weatherlink.com 1.10,2013-02-27 20:23:00,
2013-02-27 15:38:00,35.2,30.0,29.92,SE,137,0.0,4.0,81,0.00,,,0.11,weatherlink.com 1.10,2013-02-27 20:38:00,
2013-02-27 15:53:00,35.0,30.0,29.91,SSE,167,4.0,10.0,82,0.00,,,0.11,weatherlink.com 1.10,2013-02-27 20:53:00,
2013-02-27 16:08:00,35.1,30.0,29.92,East,80,5.0,9.0,82,0.00,,,0.11,weatherlink.com 1.10,2013-02-27 21:08:00,
2013-02-27 16:23:00,35.0,30.0,29.91,East,96,3.0,9.0,83,0.00,,,0.11,weatherlink.com 1.10,2013-02-27 21:23:00,
2013-02-27 16:38:00,35.1,30.0,29.91,East,101,2.0,8.0,82,0.00,,,0.00,weatherlink.com 1.10,2013-02-27 21:38:00,
2013-02-27 16:53:00,35.1,30.0,29.91,NE,50,3.0,9.0,83,0.00,,,0.00,weatherlink.com 1.10,2013-02-27 21:53:00,
2013-02-27 17:08:00,34.8,30.0,29.91,East,84,3.0,10.0,83,0.00,,,0.00,weatherlink.com 1.10,2013-02-27 22:08:00,
2013-02-27 17:23:00,34.5,30.0,29.93,ENE,78,5.0,8.0,84,0.00,,,0.00,weatherlink.com 1.10,2013-02-27 22:23:00,
2013-02-27 17:38:00,34.2,30.0,29.93,WSW,237,5.0,7.0,85,0.00,,,0.00,weatherlink.com 1.10,2013-02-27 22:38:00,
2013-02-27 17:54:00,33.8,30.0,29.94,NE,42,3.0,10.0,86,0.00,,,0.00,weatherlink.com 1.10,2013-02-27 22:54:00,
2013-02-27 18:08:00,33.5,30.0,29.94,South,169,0.0,22.0,87,0.00,,,0.00,weatherlink.com 1.10,2013-02-27 23:08:00,
2013-02-27 18:23:00,33.4,30.0,29.95,South,175,0.0,11.0,87,0.00,,,0.00,weatherlink.com 1.10,2013-02-27 23:23:00,
2013-02-27 18:38:00,33.4,30.0,29.95,ESE,102,2.0,5.0,87,0.00,,,0.00,weatherlink.com 1.10,2013-02-27 23:38:00,
2013-02-27 18:53:00,33.3,30.0,29.95,NE,44,0.0,8.0,87,0.00,,,0.00,weatherlink.com 1.10,2013-02-27 23:53:00,
2013-02-27 19:08:00,33.3,30.0,29.94,ESE,118,0.0,6.0,87,0.00,,,0.00,weatherlink.com 1.10,2013-02-28 00:08:00,
2013-02-27 19:23:00,33.1,30.0,29.94,NNE,13,0.0,7.0,88,0.00,,,0.00,weatherlink.com 1.10,2013-02-28 00:23:00,
2013-02-27 19:38:00,32.9,30.0,29.94,East,96,3.0,7.0,89,0.00,,,0.00,weatherlink.com 1.10,2013-02-28 00:38:00,
2013-02-27 19:53:00,32.7,30.0,29.94,SW,220,0.0,6.0,90,0.00,,,0.00,weatherlink.com 1.10,2013-02-28 00:53:00,
2013-02-27 20:08:00,32.3,30.0,29.94,ESE,123,0.0,7.0,91,0.00,,,0.00,weatherlink.com 1.10,2013-02-28 01:08:00,
2013-02-27 20:23:00,32.2,30.0,29.94,ENE,59,0.0,3.0,92,0.00,,,0.00,weatherlink.com 1.10,2013-02-28 01:23:00,
2013-02-27 20:38:00,32.1,30.0,29.95,WSW,243,0.0,9.0,92,0.00,,,0.00,weatherlink.com 1.10,2013-02-28 01:38:00,
2013-02-27 20:53:00,32.0,30.0,29.94,ENE,74,3.0,10.0,93,0.00,,,0.00,weatherlink.com 1.10,2013-02-28 01:53:00,
2013-02-27 21:08:00,31.9,30.0,29.95,NE,36,0.0,2.0,93,0.00,,,0.00,weatherlink.com 1.10,2013-02-28 02:08:00,
2013-02-27 21:23:00,31.6,30.0,29.95,NNW,346,5.0,7.0,93,0.00,,,0.00,weatherlink.com 1.10,2013-02-28 02:23:00,
2013-02-27 21:38:00,31.0,29.0,29.95,NW,310,2.0,9.0,93,0.00,,,0.00,weatherlink.com 1.10,2013-02-28 02:38:00,
2013-02-27 21:53:00,30.5,29.0,29.95,NE,49,5.0,7.0,93,0.00,,,0.00,weatherlink.com 1.10,2013-02-28 02:53:00,
2013-02-27 22:08:00,30.2,29.0,29.95,SSW,194,2.0,9.0,93,0.00,,,0.00,weatherlink.com 1.10,2013-02-28 03:08:00,
2013-02-27 22:23:00,30.1,28.0,29.95,NW,310,0.0,8.0,93,0.00,,,0.00,weatherlink.com 1.10,2013-02-28 03:23:00,
2013-02-27 22:39:00,30.0,28.0,29.95,NW,324,3.0,6.0,93,0.00,,,0.00,weatherlink.com 1.10,2013-02-28 03:39:00,
2013-02-27 22:54:00,29.8,28.0,29.95,NNW,336,1.0,7.0,92,0.00,,,0.00,weatherlink.com 1.10,2013-02-28 03:54:00,
2013-02-27 23:39:00,29.5,28.0,29.93,West,265,0.0,7.0,92,0.00,,,0.00,weatherlink.com 1.10,2013-02-28 04:39:00,
2013-02-27 23:54:00,29.1,27.0,29.93,SW,217,0.0,8.0,93,0.00,,,0.00,weatherlink.com 1.10,2013-02-28 04:54:00,